Terminal Aerodrome Forecast
Issued by NWS Sioux Falls, SD

Home | Current Version | Previous Version | Graphics & Text | Print | Product List | Glossary On
Versions: 1 2 3 4 5 6 7 8 9 10 11 12 13
608
FTUS43 KFSD 051132
TAFHON
TAF
KHON 051132Z 0512/0612 17009KT P6SM OVC070
     FM051700 29007KT P6SM SCT015 OVC025
      TEMPO 0518/0520 3SM -SHSN OVC015
     FM052300 32008KT P6SM SCT130
     FM060300 26005KT P6SM SCT250
     FM061000 20006KT P6SM SCT250=

USA.gov is the U.S. government's official web portal to all federal, state and local government web resources and services.